createdAt,value
2018-05-06T00:04:37.180Z,2.20
2018-05-06T00:09:28.067Z,3.00
2018-05-06T00:14:18.956Z,2.60
2018-05-06T00:19:09.866Z,2.53
2018-05-06T00:24:01.509Z,3.07
2018-05-06T00:28:52.412Z,2.93
2018-05-06T00:33:44.049Z,2.80
2018-05-06T00:38:35.687Z,3.40
2018-05-06T00:43:27.328Z,3.30
2018-05-06T00:48:18.285Z,3.00
2018-05-06T00:53:09.172Z,3.03
2018-05-06T00:58:00.075Z,2.80
2018-05-06T01:02:51.713Z,2.60
2018-05-06T01:07:42.607Z,2.83
2018-05-06T01:12:33.500Z,3.07
2018-05-06T01:17:24.403Z,3.17
2018-05-06T01:22:15.296Z,2.70
2018-05-06T01:27:06.242Z,2.60
2018-05-06T01:31:57.159Z,3.10
2018-05-06T01:36:48.043Z,3.77
2018-05-06T01:41:39.675Z,3.00
2018-05-06T01:46:31.373Z,3.13
2018-05-06T01:51:22.272Z,3.10
2018-05-06T01:56:13.914Z,3.43
2018-05-06T02:01:04.819Z,3.00
2018-05-06T02:05:55.717Z,3.47
2018-05-06T02:10:46.613Z,3.30
2018-05-06T02:15:38.253Z,3.20
2018-05-06T02:20:30.000Z,3.80
2018-05-06T02:25:20.919Z,3.03
2018-05-06T02:30:11.831Z,3.73
2018-05-06T02:35:03.468Z,3.50
2018-05-06T02:39:54.383Z,3.77
2018-05-06T02:44:46.012Z,3.60
2018-05-06T02:49:37.651Z,3.10
2018-05-06T02:54:29.276Z,3.13
2018-05-06T02:59:20.175Z,3.30
2018-05-06T03:04:11.060Z,3.43
2018-05-06T03:09:01.946Z,3.77
2018-05-06T03:13:52.861Z,3.50
2018-05-06T03:18:44.507Z,3.10
2018-05-06T03:23:35.391Z,3.37
2018-05-06T03:28:26.278Z,3.57
2018-05-06T03:33:17.181Z,3.23
2018-05-06T03:38:08.080Z,3.50
2018-05-06T03:42:58.973Z,3.50
2018-05-06T03:47:50.676Z,3.13
2018-05-06T03:52:41.585Z,3.37
2018-05-06T03:57:44.997Z,3.50
2018-05-06T04:02:38.875Z,3.43
2018-05-06T04:07:29.763Z,2.80
2018-05-06T04:12:21.411Z,4.03
2018-05-06T04:17:12.370Z,2.90
2018-05-06T04:22:03.259Z,3.17
2018-05-06T04:26:54.183Z,3.07
2018-05-06T04:31:45.056Z,3.10
2018-05-06T04:36:35.944Z,3.67
2018-05-06T04:41:26.831Z,3.20
2018-05-06T04:46:17.718Z,3.90
2018-05-06T04:51:09.355Z,3.13
2018-05-06T04:56:01.025Z,3.20
2018-05-06T05:00:51.929Z,3.40
2018-05-06T05:05:42.817Z,2.90
2018-05-06T05:10:34.450Z,2.80
2018-05-06T05:15:25.370Z,3.27
2018-05-06T05:20:31.267Z,2.90
2018-05-06T05:25:22.155Z,3.00
2018-05-06T05:30:13.044Z,3.03
2018-05-06T05:35:03.945Z,3.17
2018-05-06T05:39:54.835Z,3.10
2018-05-06T05:44:46.463Z,3.27
2018-05-06T05:49:38.109Z,3.90
2018-05-06T05:54:28.996Z,3.70
2018-05-06T05:59:19.911Z,2.90
2018-05-06T06:04:12.296Z,3.30
2018-05-06T06:09:03.925Z,3.07
2018-05-06T06:13:55.561Z,2.90
2018-05-06T06:18:47.247Z,3.43
2018-05-06T06:23:38.135Z,3.50
2018-05-06T06:28:29.819Z,3.67
2018-05-06T06:33:20.731Z,4.40
2018-05-06T06:38:11.631Z,3.57
2018-05-06T06:43:03.264Z,3.30
2018-05-06T06:47:54.165Z,3.60
2018-05-06T06:52:45.060Z,4.07
2018-05-06T06:57:35.951Z,3.70
2018-05-06T07:02:27.595Z,3.27
2018-05-06T07:07:19.222Z,2.87
2018-05-06T07:12:10.911Z,2.70
2018-05-06T07:17:01.822Z,2.70
2018-05-06T07:21:52.756Z,2.37
2018-05-06T07:26:43.677Z,2.60
2018-05-06T07:31:34.774Z,2.37
2018-05-06T07:36:25.765Z,3.90
2018-05-06T07:41:16.667Z,3.37
2018-05-06T07:46:07.572Z,3.10
2018-05-06T07:50:58.527Z,3.03
2018-05-06T07:55:49.440Z,3.57
2018-05-06T08:00:41.087Z,2.80
2018-05-06T08:05:32.003Z,2.43
2018-05-06T08:10:22.899Z,3.10
2018-05-06T08:15:13.826Z,2.20
2018-05-06T08:20:05.455Z,2.50
2018-05-06T08:24:56.353Z,2.23
2018-05-06T08:29:48.003Z,2.17
2018-05-06T08:34:39.664Z,2.17
2018-05-06T08:39:30.608Z,2.10
2018-05-06T08:44:21.504Z,2.30
2018-05-06T08:49:12.435Z,3.30
2018-05-06T08:54:03.323Z,2.43
2018-05-06T08:58:54.234Z,2.37
2018-05-06T09:03:45.235Z,2.67
2018-05-06T09:08:36.216Z,2.37
2018-05-06T09:13:27.199Z,3.10
2018-05-06T09:18:18.121Z,2.60
2018-05-06T09:23:09.190Z,2.77
2018-05-06T09:28:00.818Z,2.80
2018-05-06T09:32:52.476Z,2.70
2018-05-06T09:37:43.419Z,2.57
2018-05-06T09:42:34.363Z,2.37
2018-05-06T09:47:25.268Z,2.93
2018-05-06T09:52:16.200Z,2.63
2018-05-06T09:57:07.226Z,1.97
2018-05-06T10:01:58.871Z,2.17
2018-05-06T10:06:50.052Z,2.43
2018-05-06T10:11:47.937Z,2.27
2018-05-06T10:16:38.996Z,2.43
2018-05-06T10:21:29.896Z,2.30
2018-05-06T10:26:20.839Z,2.53
2018-05-06T10:31:11.853Z,2.67
2018-05-06T10:36:02.844Z,1.80
2018-05-06T10:41:00.723Z,2.60
2018-05-06T10:45:51.651Z,2.20
2018-05-06T10:50:42.618Z,2.30
2018-05-06T10:55:33.580Z,2.10
2018-05-06T11:00:25.232Z,2.10
2018-05-06T11:05:16.152Z,2.07
2018-05-06T11:10:07.882Z,2.23
2018-05-06T11:14:58.812Z,1.97
2018-05-06T11:19:49.757Z,1.93
2018-05-06T11:24:40.672Z,2.33
2018-05-06T11:29:31.572Z,2.50
2018-05-06T11:34:23.496Z,2.00
2018-05-06T11:39:14.504Z,2.67
2018-05-06T11:44:20.399Z,2.17
2018-05-06T11:49:11.400Z,2.53
2018-05-06T11:54:02.305Z,2.60
2018-05-06T11:58:53.256Z,2.20
2018-05-06T12:03:44.167Z,2.00
2018-05-06T12:08:35.062Z,2.03
2018-05-06T12:13:25.955Z,2.50
2018-05-06T12:18:16.843Z,2.33
2018-05-06T12:23:07.792Z,1.70
2018-05-06T12:27:58.674Z,1.70
2018-05-06T12:32:50.303Z,1.93
2018-05-06T12:37:41.303Z,1.40
2018-05-06T12:42:32.217Z,1.50
2018-05-06T12:47:23.107Z,1.73
2018-05-06T12:52:14.824Z,1.60
2018-05-06T12:57:05.742Z,1.80
2018-05-06T13:01:56.673Z,1.80
2018-05-06T13:06:47.620Z,1.70
2018-05-06T13:11:39.331Z,1.50
2018-05-06T13:16:30.261Z,1.10
2018-05-06T13:21:21.215Z,1.50
2018-05-06T13:26:12.901Z,1.63
2018-05-06T13:31:04.527Z,2.10
2018-05-06T13:35:55.423Z,2.03
2018-05-06T13:40:47.124Z,2.13
2018-05-06T13:45:38.775Z,1.60
2018-05-06T13:50:29.655Z,1.40
2018-05-06T13:55:20.553Z,2.00
2018-05-06T14:00:11.503Z,1.73
2018-05-06T14:05:02.411Z,1.93
2018-05-06T14:09:53.309Z,1.93
2018-05-06T14:14:44.207Z,1.87
2018-05-06T14:19:35.895Z,1.73
2018-05-06T14:24:26.810Z,1.70
2018-05-06T14:29:17.732Z,2.07
2018-05-06T14:34:08.663Z,1.90
2018-05-06T14:38:59.570Z,2.10
2018-05-06T14:43:50.529Z,1.73
2018-05-06T14:48:41.427Z,1.90
2018-05-06T14:53:32.317Z,1.87
2018-05-06T14:58:23.215Z,2.50
2018-05-06T15:03:14.107Z,2.20
2018-05-06T15:08:05.739Z,2.00
2018-05-06T15:12:56.664Z,2.20
2018-05-06T15:17:47.556Z,2.23
2018-05-06T15:22:38.500Z,2.10
2018-05-06T15:27:29.403Z,1.97
2018-05-06T15:32:20.320Z,1.93
2018-05-06T15:37:11.227Z,1.93
2018-05-06T15:42:02.116Z,2.40
2018-05-06T15:46:53.024Z,2.00
2018-05-06T15:51:43.912Z,1.40
2018-05-06T15:56:34.809Z,1.47
2018-05-06T16:01:25.707Z,1.87
2018-05-06T16:06:16.601Z,2.20
2018-05-06T16:11:07.735Z,1.70
2018-05-06T16:15:58.696Z,1.90
2018-05-06T16:20:49.619Z,2.10
2018-05-06T16:25:40.571Z,1.67
2018-05-06T16:30:31.465Z,2.23
2018-05-06T16:35:22.375Z,1.80
2018-05-06T16:40:13.415Z,1.97
2018-05-06T16:45:04.323Z,1.97
2018-05-06T16:49:55.211Z,1.80
2018-05-06T16:54:46.915Z,1.80
2018-05-06T16:59:37.832Z,2.20
2018-05-06T17:04:28.727Z,1.50
2018-05-06T17:09:20.420Z,1.90
2018-05-06T17:14:11.347Z,2.10
2018-05-06T17:19:02.291Z,1.70
2018-05-06T17:23:53.215Z,1.67
2018-05-06T17:28:44.929Z,1.87
2018-05-06T17:33:35.859Z,1.80
2018-05-06T17:38:26.808Z,1.80
2018-05-06T17:43:17.695Z,1.87
2018-05-06T17:48:08.724Z,2.30
2018-05-06T17:53:00.782Z,2.87
2018-05-06T17:57:52.523Z,3.10
2018-05-06T18:02:43.543Z,2.60
2018-05-06T18:07:35.279Z,2.70
2018-05-06T18:12:26.156Z,3.13
2018-05-06T18:17:17.051Z,2.30
2018-05-06T18:22:07.989Z,3.10
2018-05-06T18:26:58.916Z,2.50
2018-05-06T18:31:49.807Z,2.40
2018-05-06T18:36:40.700Z,2.40
2018-05-06T18:41:31.589Z,2.03
2018-05-06T18:46:22.504Z,3.03
2018-05-06T18:51:13.503Z,3.03
2018-05-06T18:56:05.444Z,2.33
2018-05-06T19:00:56.459Z,2.20
2018-05-06T19:05:47.380Z,2.57
2018-05-06T19:10:38.299Z,2.23
2018-05-06T19:15:29.308Z,2.60
2018-05-06T19:20:20.210Z,2.33
2018-05-06T19:25:11.849Z,2.47
2018-05-06T19:30:02.754Z,2.43
2018-05-06T19:34:54.423Z,2.33
2018-05-06T19:39:45.386Z,2.60
2018-05-06T19:44:36.951Z,2.90
2018-05-06T19:49:27.859Z,2.53
2018-05-06T19:54:19.566Z,3.00
2018-05-06T19:59:10.462Z,2.40
2018-05-06T20:04:01.368Z,2.40
2018-05-06T20:08:52.406Z,2.80
2018-05-06T20:13:43.306Z,2.33
2018-05-06T20:18:34.217Z,2.87
2018-05-06T20:23:25.181Z,2.77
2018-05-06T20:28:16.099Z,2.70
2018-05-06T20:33:08.488Z,2.13
2018-05-06T20:37:59.621Z,3.30
2018-05-06T20:42:50.527Z,2.27
2018-05-06T20:47:42.681Z,2.10
2018-05-06T20:52:34.308Z,2.40
2018-05-06T20:57:26.126Z,2.23
2018-05-06T21:02:17.041Z,2.40
2018-05-06T21:07:07.932Z,2.30
2018-05-06T21:11:58.818Z,2.50
2018-05-06T21:16:49.771Z,2.30
2018-05-06T21:21:40.906Z,2.63
2018-05-06T21:26:31.952Z,2.40
2018-05-06T21:31:22.999Z,3.37
2018-05-06T21:36:15.004Z,2.90
2018-05-06T21:41:06.547Z,3.07
2018-05-06T21:45:57.460Z,2.57
2018-05-06T21:50:48.343Z,2.20
2018-05-06T21:55:39.223Z,2.60
2018-05-06T22:00:30.115Z,3.17
2018-05-06T22:05:21.007Z,2.20
2018-05-06T22:10:11.952Z,2.63
2018-05-06T22:15:02.848Z,3.10
2018-05-06T22:19:53.743Z,2.80
2018-05-06T22:24:44.704Z,2.30
2018-05-06T22:29:35.619Z,2.30
2018-05-06T22:34:26.511Z,2.80
2018-05-06T22:39:17.459Z,3.40
2018-05-06T22:44:08.359Z,2.50
2018-05-06T22:48:59.265Z,2.60
2018-05-06T22:53:50.144Z,3.20
2018-05-06T22:58:41.040Z,2.50
2018-05-06T23:03:31.947Z,3.30
2018-05-06T23:08:22.832Z,3.20
2018-05-06T23:13:13.721Z,2.70
2018-05-06T23:18:05.369Z,3.03
2018-05-06T23:22:57.000Z,2.47
2018-05-06T23:27:48.628Z,3.10
2018-05-06T23:32:39.511Z,3.10
2018-05-06T23:37:30.395Z,3.73
2018-05-06T23:42:21.287Z,2.93
2018-05-06T23:47:12.929Z,3.20
2018-05-06T23:52:04.598Z,3.20
2018-05-06T23:56:55.471Z,3.10
